Time;durP1;ratioP1;P1;durP2;ratioP2;P2;SDS_P1;SDS_P2;PMS_P1;PMS_P2;Temp;Humidity;BMP_temperature;BMP_pressure;BME280_temperature;BME280_humidity;BME280_pressure;Samples;Min_cycle;Max_cycle;Signal;HPM_P1;HPM_P2
2023/04/10 00:02:01;;;;;;;3.83;3.53;;;21.50;64.70;;;;;;5096478;28;20938;-88
2023/04/10 00:04:28;;;;;;;2.83;2.63;;;21.50;65.60;;;;;;5096293;28;20461;-88
2023/04/10 00:06:55;;;;;;;2.70;2.50;;;21.40;64.70;;;;;;5096467;28;20468;-88
2023/04/10 00:09:22;;;;;;;3.53;2.80;;;21.50;64.70;;;;;;5096226;28;20541;-88
2023/04/10 00:11:48;;;;;;;2.80;2.60;;;21.60;64.70;;;;;;5096327;28;20783;-87
2023/04/10 00:14:21;;;;;;;3.60;3.30;;;21.50;64.60;;;;;;5096102;28;20490;-88
2023/04/10 00:16:48;;;;;;;3.70;3.40;;;21.50;64.60;;;;;;5096161;28;20440;-88
2023/04/10 00:19:17;;;;;;;3.17;2.97;;;21.40;64.50;;;;;;5096133;28;20435;-88
2023/04/10 00:21:44;;;;;;;3.30;3.00;;;21.40;64.50;;;;;;5095940;28;20800;-87
2023/04/10 00:24:11;;;;;;;4.10;3.80;;;21.40;64.50;;;;;;5096276;28;20440;-90
2023/04/10 00:26:38;;;;;;;3.80;3.50;;;21.40;64.50;;;;;;5096314;28;20436;-87
2023/04/10 00:29:05;;;;;;;4.70;4.20;;;21.40;64.40;;;;;;5096159;28;20436;-93
2023/04/10 00:31:33;;;;;;;3.80;3.23;;;21.40;64.50;;;;;;5095932;28;20443;-92
2023/04/10 00:34:00;;;;;;;3.27;3.07;;;21.40;64.40;;;;;;5095738;28;20485;-94
2023/04/10 00:36:27;;;;;;;4.60;3.40;;;21.40;64.40;;;;;;5095865;28;20518;-88
2023/04/10 00:38:54;;;;;;;3.40;3.20;;;21.40;64.30;;;;;;5095704;28;20440;-93
2023/04/10 00:41:22;;;;;;;4.27;3.73;;;21.40;64.50;;;;;;5095626;28;20934;-94
2023/04/10 00:43:49;;;;;;;3.40;3.10;;;21.40;64.40;;;;;;5095844;28;20481;-88
2023/04/10 00:46:16;;;;;;;3.53;3.23;;;21.40;64.30;;;;;;5095692;28;20442;-88
2023/04/10 00:48:44;;;;;;;4.20;3.80;;;21.40;64.50;;;;;;5095766;28;20926;-88
2023/04/10 00:51:12;;;;;;;4.00;3.60;;;21.40;64.40;;;;;;5095396;28;20796;-94
2023/04/10 00:53:39;;;;;;;3.70;3.40;;;21.40;64.30;;;;;;5095731;28;20862;-88
2023/04/10 00:56:06;;;;;;;4.07;3.67;;;21.40;64.30;;;;;;5095453;28;20487;-88
2023/04/10 00:58:33;;;;;;;3.90;3.60;;;21.40;64.40;;;;;;5095405;28;20519;-88
2023/04/10 01:01:00;;;;;;;3.60;3.23;;;21.40;64.40;;;;;;5095465;28;20805;-88
2023/04/10 01:03:27;;;;;;;4.97;4.57;;;21.40;64.40;;;;;;5095077;28;20464;-88
2023/04/10 01:06:06;;;;;;;4.50;4.10;;;21.30;64.20;;;;;;5095312;28;20836;-88
2023/04/10 01:08:43;;;;;;;3.90;3.60;;;21.40;65.20;;;;;;5094674;28;20440;-88
2023/04/10 01:11:13;;;;;;;4.30;4.00;;;21.30;64.20;;;;;;5094995;28;20446;-88
2023/04/10 01:13:48;;;;;;;4.50;4.10;;;21.30;64.30;;;;;;5095014;28;20469;-88
2023/04/10 01:16:19;;;;;;;4.90;4.50;;;21.30;64.10;;;;;;5094836;28;20450;-88
2023/04/10 01:18:53;;;;;;;4.00;3.70;;;21.30;64.10;;;;;;5094975;28;20438;-88
2023/04/10 01:21:22;;;;;;;3.80;3.50;;;21.30;64.10;;;;;;5094883;28;20453;-88
2023/04/10 01:24:14;;;;;;;4.00;3.60;;;21.30;64.00;;;;;;5094711;28;20458;-88
2023/04/10 01:27:03;;;;;;;4.70;4.30;;;21.30;64.10;;;;;;5088876;28;20444;-88
2023/04/10 01:29:33;;;;;;;6.30;4.20;;;21.30;64.00;;;;;;5094531;28;20439;-88
2023/04/10 01:32:03;;;;;;;3.87;3.57;;;21.30;64.10;;;;;;5094728;28;20435;-88
2023/04/10 01:34:35;;;;;;;4.40;4.03;;;21.30;64.00;;;;;;5094726;28;20518;-88
2023/04/10 01:37:06;;;;;;;4.03;3.73;;;21.30;64.10;;;;;;5094372;28;20450;-88
2023/04/10 01:39:37;;;;;;;4.00;3.70;;;21.40;64.20;;;;;;5094507;28;20440;-88
2023/04/10 01:42:07;;;;;;;3.90;3.60;;;21.30;64.10;;;;;;5094469;28;20534;-88
2023/04/10 01:44:38;;;;;;;4.50;4.20;;;21.30;64.10;;;;;;5094441;28;20442;-88
2023/04/10 01:47:06;;;;;;;4.63;4.33;;;21.40;64.30;;;;;;5094406;28;20452;-88
2023/04/10 01:49:36;;;;;;;4.30;3.90;;;21.30;64.00;;;;;;5094053;28;20444;-88
2023/04/10 01:52:05;;;;;;;4.13;3.80;;;21.30;64.10;;;;;;5094533;28;20437;-88
2023/04/10 01:54:33;;;;;;;4.50;4.20;;;21.30;64.10;;;;;;5094235;28;20491;-88
2023/04/10 01:57:02;;;;;;;5.00;4.50;;;21.30;64.00;;;;;;5094289;28;20448;-94
2023/04/10 01:59:30;;;;;;;5.03;4.63;;;21.30;64.10;;;;;;5094123;28;20447;-88
2023/04/10 02:01:59;;;;;;;5.10;4.70;;;21.30;63.90;;;;;;5094264;28;20873;-88
2023/04/10 02:04:26;;;;;;;4.70;4.30;;;21.30;64.00;;;;;;5093897;28;20525;-88
2023/04/10 02:07:03;;;;;;;4.47;4.10;;;21.30;64.10;;;;;;5093905;28;20534;-88
2023/04/10 02:09:37;;;;;;;4.50;4.10;;;21.30;63.90;;;;;;5094068;28;20913;-88
2023/04/10 02:12:06;;;;;;;4.70;4.20;;;21.20;63.90;;;;;;5093968;28;20446;-88
2023/04/10 02:14:39;;;;;;;4.30;4.00;;;21.20;63.90;;;;;;5093747;28;20471;-88
2023/04/10 02:17:10;;;;;;;4.77;4.37;;;21.20;63.90;;;;;;5093878;28;20446;-88
2023/04/10 02:19:38;;;;;;;4.20;3.90;;;21.20;63.80;;;;;;5094111;28;20531;-88
2023/04/10 02:22:05;;;;;;;4.50;4.20;;;21.20;63.80;;;;;;5094144;28;20443;-91
2023/04/10 02:24:34;;;;;;;4.30;4.00;;;21.20;63.90;;;;;;5094636;28;20448;-89
2023/04/10 02:27:01;;;;;;;4.43;4.10;;;21.20;63.90;;;;;;5094093;28;20503;-93
2023/04/10 02:29:28;;;;;;;4.97;4.47;;;21.20;63.60;;;;;;5094682;28;20467;-92
2023/04/10 02:31:55;;;;;;;4.53;4.13;;;21.20;64.20;;;;;;5093912;28;20440;-92
2023/04/10 02:34:23;;;;;;;5.17;4.77;;;21.20;63.80;;;;;;5094007;28;20543;-93
2023/04/10 02:36:50;;;;;;;4.53;4.13;;;21.20;63.80;;;;;;5094182;28;20440;-94
2023/04/10 02:39:16;;;;;;;5.17;4.67;;;21.20;63.90;;;;;;5094424;28;20921;-88
2023/04/10 02:41:43;;;;;;;4.73;4.33;;;21.20;63.80;;;;;;5093952;28;20799;-93
2023/04/10 02:44:10;;;;;;;3.83;3.57;;;21.20;63.90;;;;;;5094405;28;20530;-93
2023/04/10 02:46:37;;;;;;;4.67;4.27;;;21.20;63.90;;;;;;5094046;28;20443;-94
2023/04/10 02:49:03;;;;;;;4.40;3.93;;;21.20;63.80;;;;;;5094240;28;20435;-88
2023/04/10 02:51:35;;;;;;;5.20;4.70;;;21.20;63.80;;;;;;5093767;28;20548;-93
2023/04/10 02:54:01;;;;;;;4.13;3.83;;;21.20;63.80;;;;;;5094164;28;20501;-94
2023/04/10 02:56:28;;;;;;;4.47;4.07;;;21.20;63.80;;;;;;5093427;28;20493;-93
2023/04/10 02:58:55;;;;;;;4.60;4.23;;;21.20;63.80;;;;;;5093804;28;20442;-92
2023/04/10 03:01:22;;;;;;;4.73;4.33;;;21.20;63.80;;;;;;5093850;28;20445;-88
2023/04/10 03:03:49;;;;;;;4.93;4.50;;;21.20;63.70;;;;;;5093739;28;20996;-93
2023/04/10 03:06:16;;;;;;;5.47;4.50;;;21.20;63.80;;;;;;5093827;28;20960;-93
2023/04/10 03:08:44;;;;;;;4.20;3.80;;;21.20;63.70;;;;;;5093614;28;20524;-92
2023/04/10 03:11:11;;;;;;;5.30;4.27;;;21.20;63.80;;;;;;5093603;28;20445;-88
2023/04/10 03:13:37;;;;;;;4.30;3.90;;;21.20;63.80;;;;;;5093896;28;20441;-94
2023/04/10 03:16:05;;;;;;;4.43;4.03;;;21.20;63.70;;;;;;5093566;28;20473;-92
2023/04/10 03:18:33;;;;;;;5.37;4.87;;;21.10;63.70;;;;;;5093893;28;20444;-88
2023/04/10 03:21:00;;;;;;;4.10;3.80;;;21.10;63.70;;;;;;5093712;28;20432;-94
2023/04/10 03:23:28;;;;;;;4.80;4.40;;;21.20;63.80;;;;;;5093891;28;20531;-89
2023/04/10 03:25:56;;;;;;;5.10;4.60;;;21.10;63.70;;;;;;5093402;28;20478;-93
2023/04/10 03:28:23;;;;;;;4.47;4.07;;;21.10;63.50;;;;;;5093518;28;20448;-89
2023/04/10 03:30:50;;;;;;;3.87;3.57;;;21.10;63.60;;;;;;5093234;28;20438;-91
2023/04/10 03:33:17;;;;;;;3.73;3.43;;;21.10;63.60;;;;;;5095497;28;20461;-94
2023/04/10 03:35:46;;;;;;;4.33;4.03;;;21.10;63.60;;;;;;5097131;28;20664;-92
2023/04/10 03:38:13;;;;;;;3.97;3.67;;;21.10;63.50;;;;;;5097350;28;20440;-94
2023/04/10 03:40:39;;;;;;;4.43;4.10;;;21.10;63.60;;;;;;5097432;28;20442;-93
2023/04/10 03:43:08;;;;;;;4.80;4.40;;;21.20;63.80;;;;;;5097412;28;20926;-93
2023/04/10 03:45:34;;;;;;;4.67;4.27;;;21.10;63.70;;;;;;5097654;28;20462;-88
2023/04/10 03:48:01;;;;;;;6.00;4.00;;;21.10;63.60;;;;;;5097470;28;20980;-89
2023/04/10 03:50:28;;;;;;;4.77;4.37;;;21.10;63.60;;;;;;5096950;28;20540;-94
2023/04/10 03:52:55;;;;;;;4.60;4.20;;;21.10;63.50;;;;;;5097075;28;20446;-88
2023/04/10 03:55:22;;;;;;;4.07;3.77;;;21.10;63.50;;;;;;5096870;28;20504;-88
2023/04/10 03:57:49;;;;;;;4.63;4.23;;;21.10;63.60;;;;;;5096958;28;20930;-93
2023/04/10 04:00:17;;;;;;;4.23;3.93;;;21.10;63.50;;;;;;5096912;28;20474;-88
2023/04/10 04:02:44;;;;;;;4.60;4.20;;;21.10;63.60;;;;;;5096958;28;20441;-94
2023/04/10 04:05:11;;;;;;;4.10;3.80;;;21.10;63.50;;;;;;5097072;28;20527;-93
2023/04/10 04:07:38;;;;;;;4.47;4.13;;;21.10;63.50;;;;;;5096719;28;20435;-88
2023/04/10 04:10:05;;;;;;;4.20;3.90;;;21.10;63.40;;;;;;5096515;28;20459;-88
2023/04/10 04:12:32;;;;;;;4.40;4.10;;;21.10;63.40;;;;;;5096685;28;20443;-94
2023/04/10 04:14:59;;;;;;;4.20;3.90;;;21.10;63.60;;;;;;5096563;28;20873;-94
2023/04/10 04:17:27;;;;;;;4.40;4.10;;;21.10;63.50;;;;;;5096537;28;20467;-88
2023/04/10 04:19:54;;;;;;;4.93;4.53;;;21.10;63.50;;;;;;5096503;28;21001;-89
2023/04/10 04:22:21;;;;;;;4.27;3.97;;;21.10;63.50;;;;;;5096822;28;20432;-94
2023/04/10 04:24:48;;;;;;;4.20;3.90;;;21.10;63.60;;;;;;5096158;28;20432;-94
2023/04/10 04:27:14;;;;;;;4.00;3.67;;;21.10;63.60;;;;;;5096538;28;20442;-94
2023/04/10 04:29:41;;;;;;;4.50;4.10;;;21.00;63.50;;;;;;5096336;28;20957;-89
2023/04/10 04:32:08;;;;;;;3.97;3.67;;;21.00;63.50;;;;;;5096569;28;20432;-91
2023/04/10 04:34:36;;;;;;;4.23;3.80;;;21.00;63.60;;;;;;5096603;28;20466;-89
2023/04/10 04:37:04;;;;;;;4.30;3.93;;;20.90;63.50;;;;;;5096344;28;20494;-94
2023/04/10 04:39:31;;;;;;;3.87;3.57;;;21.00;63.50;;;;;;5096651;28;20469;-94
2023/04/10 04:41:58;;;;;;;4.80;4.30;;;21.00;64.30;;;;;;5096589;28;20539;-93
2023/04/10 04:44:24;;;;;;;4.27;3.97;;;21.00;63.60;;;;;;5096542;28;20514;-89
2023/04/10 04:46:51;;;;;;;3.97;3.67;;;21.00;63.60;;;;;;5096556;28;20442;-87
2023/04/10 04:49:18;;;;;;;4.00;3.70;;;21.00;64.30;;;;;;5096165;28;21014;-93
2023/04/10 04:51:46;;;;;;;4.33;4.03;;;21.00;63.50;;;;;;5095830;28;20835;-89
2023/04/10 04:54:13;;;;;;;4.70;4.30;;;21.00;63.40;;;;;;5095630;28;20440;-88
2023/04/10 04:56:40;;;;;;;4.23;3.90;;;21.00;63.40;;;;;;5095725;28;20893;-93
2023/04/10 04:59:06;;;;;;;4.60;4.13;;;21.00;63.60;;;;;;5095595;28;20527;-88
2023/04/10 05:01:33;;;;;;;4.37;3.97;;;21.00;63.50;;;;;;5095613;28;20454;-90
2023/04/10 05:04:00;;;;;;;4.53;4.13;;;21.00;63.40;;;;;;5095631;28;20460;-93
2023/04/10 05:06:27;;;;;;;4.80;4.40;;;21.00;63.60;;;;;;5095622;28;20435;-93
2023/04/10 05:08:55;;;;;;;3.93;3.63;;;21.00;63.50;;;;;;5095748;28;20436;-89
2023/04/10 05:11:22;;;;;;;4.90;4.40;;;21.00;63.50;;;;;;5095508;28;20435;-93
2023/04/10 05:13:49;;;;;;;4.00;3.70;;;21.00;63.70;;;;;;5095565;28;20488;-93
2023/04/10 05:16:15;;;;;;;4.27;3.93;;;21.00;63.50;;;;;;5095449;28;20985;-88
2023/04/10 05:18:42;;;;;;;3.43;3.13;;;21.00;63.40;;;;;;5095280;28;20934;-94
2023/04/10 05:21:09;;;;;;;4.10;3.80;;;21.00;63.40;;;;;;5095267;28;20442;-88
2023/04/10 05:23:36;;;;;;;4.30;3.97;;;21.00;63.40;;;;;;5095533;28;20523;-93
2023/04/10 05:26:05;;;;;;;4.40;4.00;;;21.00;63.50;;;;;;5095528;28;20542;-93
2023/04/10 05:28:31;;;;;;;4.40;4.00;;;21.00;63.40;;;;;;5095533;28;20508;-93
2023/04/10 05:30:58;;;;;;;4.93;4.53;;;21.00;63.60;;;;;;5095397;28;20530;-93
2023/04/10 05:33:25;;;;;;;3.50;3.30;;;21.00;63.50;;;;;;5094909;28;20957;-92
2023/04/10 05:35:53;;;;;;;3.97;3.60;;;21.00;63.40;;;;;;5095340;28;20472;-93
2023/04/10 05:38:20;;;;;;;4.03;3.73;;;21.00;63.50;;;;;;5094986;28;20436;-93
2023/04/10 05:40:47;;;;;;;4.07;3.77;;;21.00;63.50;;;;;;5094838;28;20444;-88
2023/04/10 05:43:15;;;;;;;4.07;3.77;;;21.00;63.70;;;;;;5095008;28;20944;-89
2023/04/10 05:45:44;;;;;;;3.87;3.57;;;20.90;63.40;;;;;;5094959;28;20446;-88
2023/04/10 05:48:11;;;;;;;4.33;4.03;;;20.90;63.50;;;;;;5094853;28;20435;-89
2023/04/10 05:50:37;;;;;;;5.00;4.60;;;20.90;63.40;;;;;;5094749;28;20471;-88
2023/04/10 05:53:04;;;;;;;3.97;3.67;;;20.90;63.50;;;;;;5094574;28;20531;-94
2023/04/10 05:55:31;;;;;;;4.23;3.93;;;20.90;63.40;;;;;;5093993;28;20465;-94
2023/04/10 05:57:58;;;;;;;4.27;3.93;;;21.00;63.60;;;;;;5094614;28;20439;-91
2023/04/10 06:00:30;;;;;;;4.20;3.80;;;20.90;63.60;;;;;;5094688;28;20444;-93
2023/04/10 06:02:56;;;;;;;5.10;4.47;;;21.00;63.70;;;;;;5094680;28;20546;-93
2023/04/10 06:05:23;;;;;;;4.60;4.20;;;20.90;63.00;;;;;;5094974;28;20947;-88
2023/04/10 06:07:51;;;;;;;4.20;3.80;;;;;;;;;;5095234;28;20789;-90
2023/04/10 06:10:18;;;;;;;6.47;5.97;;;20.90;62.70;;;;;;5094466;28;20450;-91
2023/04/10 06:12:45;;;;;;;5.50;5.00;;;20.90;60.40;;;;;;5094360;28;20550;-89
2023/04/10 06:15:12;;;;;;;5.90;4.80;;;21.00;61.30;;;;;;5094420;28;20445;-91
2023/04/10 06:17:43;;;;;;;4.80;4.30;;;21.00;62.40;;;;;;5094140;28;20490;-86
2023/04/10 06:20:10;;;;;;;4.50;4.10;;;21.00;62.60;;;;;;5094212;28;20436;-90
2023/04/10 06:22:37;;;;;;;4.40;4.00;;;20.90;62.70;;;;;;5093997;28;20440;-89
2023/04/10 06:25:05;;;;;;;5.63;4.20;;;21.10;63.10;;;;;;5093828;28;20453;-91
2023/04/10 06:27:33;;;;;;;5.23;4.00;;;20.90;61.70;;;;;;5093768;28;20443;-80
2023/04/10 06:30:00;;;;;;;5.87;4.63;;;21.00;61.90;;;;;;5093893;28;20435;-91
2023/04/10 06:32:27;;;;;;;4.77;4.43;;;20.90;61.70;;;;;;5093935;28;20473;-90
2023/04/10 06:34:55;;;;;;;4.80;4.40;;;20.90;61.90;;;;;;5093748;28;20456;-86
2023/04/10 06:37:29;;;;;;;6.80;4.30;;;21.00;62.30;;;;;;5093932;28;20480;-91
2023/04/10 06:40:02;;;;;;;4.60;4.20;;;21.00;62.80;;;;;;5093843;28;20492;-85
2023/04/10 06:42:29;;;;;;;4.97;4.40;;;21.00;62.90;;;;;;5094148;28;20493;-92
2023/04/10 06:44:56;;;;;;;5.30;4.87;;;21.00;63.00;;;;;;5075625;28;20505;-89
2023/04/10 06:47:22;;;;;;;5.20;4.13;;;21.10;63.30;;;;;;5093666;28;20930;-91
2023/04/10 06:49:49;;;;;;;4.30;3.90;;;21.10;63.30;;;;;;5093437;28;20438;-91
2023/04/10 06:52:17;;;;;;;4.40;4.00;;;21.10;62.50;;;;;;5093621;28;20420;-90
2023/04/10 06:54:44;;;;;;;6.70;4.57;;;21.10;63.00;;;;;;5075749;28;20773;-86
2023/04/10 06:57:11;;;;;;;7.90;5.03;;;21.20;64.10;;;;;;5093387;28;20973;-90
2023/04/10 06:59:38;;;;;;;3.80;3.50;;;21.10;63.40;;;;;;5093841;28;20795;-90
2023/04/10 07:02:05;;;;;;;11.30;4.90;;;21.10;63.10;;;;;;5093518;28;20452;-89
2023/04/10 07:04:32;;;;;;;4.07;3.77;;;21.10;63.20;;;;;;5093726;28;20464;-91
2023/04/10 07:06:59;;;;;;;7.10;4.40;;;21.10;63.30;;;;;;5095710;28;20436;-83
2023/04/10 07:09:27;;;;;;;4.17;3.83;;;21.10;61.80;;;;;;5097845;28;20435;-93
2023/04/10 07:11:54;;;;;;;7.07;4.73;;;21.20;62.40;;;;;;5097654;28;20935;-92
2023/04/10 07:14:20;;;;;;;4.87;3.63;;;21.20;62.70;;;;;;5098057;28;20528;-90
2023/04/10 07:16:48;;;;;;;4.17;3.77;;;21.20;63.10;;;;;;5097578;28;20479;-94
2023/04/10 07:19:14;;;;;;;5.77;4.53;;;21.40;63.70;;;;;;5098802;28;20423;-84
2023/04/10 07:21:41;;;;;;;10.10;9.10;;;21.20;63.60;;;;;;5099816;28;20447;-94
2023/04/10 07:24:08;;;;;;;13.47;10.60;;;21.20;63.60;;;;;;5097591;28;20446;-83
2023/04/10 07:26:36;;;;;;;20.50;11.17;;;21.20;63.80;;;;;;5096650;28;20454;-91
2023/04/10 07:29:03;;;;;;;17.93;12.80;;;21.20;63.80;;;;;;5098471;28;20443;-82
2023/04/10 07:31:30;;;;;;;16.80;8.37;;;21.20;63.80;;;;;;5097878;28;20454;-93
2023/04/10 07:33:56;;;;;;;14.33;8.57;;;21.20;61.30;;;;;;5097336;28;20463;-91
2023/04/10 07:36:23;;;;;;;16.67;11.20;;;21.20;61.90;;;;;;5097247;28;20834;-93
2023/04/10 07:38:50;;;;;;;15.73;10.57;;;21.20;62.70;;;;;;5097678;28;20440;-83
2023/04/10 07:41:17;;;;;;;10.07;7.33;;;21.30;62.90;;;;;;5079272;28;20448;-81
2023/04/10 07:43:45;;;;;;;7.50;6.40;;;21.20;62.20;;;;;;5100047;28;20816;-83
2023/04/10 07:46:12;;;;;;;12.40;6.50;;;21.20;59.60;;;;;;5111372;28;20479;-94
2023/04/10 07:48:39;;;;;;;11.07;6.53;;;21.20;59.40;;;;;;5097802;28;20918;-90
2023/04/10 07:51:08;;;;;;;15.03;9.03;;;21.20;59.80;;;;;;5096540;28;20565;-82
2023/04/10 07:53:34;;;;;;;15.90;7.00;;;21.20;60.60;;;;;;5078286;28;20479;-83
2023/04/10 07:56:02;;;;;;;9.07;7.30;;;21.20;61.80;;;;;;5096216;28;20497;-88
2023/04/10 07:58:28;;;;;;;7.87;7.03;;;21.30;62.00;;;;;;5096173;28;20440;-88
2023/04/10 08:00:57;;;;;;;9.80;6.80;;;21.30;62.10;;;;;;5096560;28;20431;-82
2023/04/10 08:03:23;;;;;;;12.60;8.60;;;21.30;62.20;;;;;;5096200;28;20546;-87
2023/04/10 08:05:50;;;;;;;9.30;7.00;;;21.30;62.30;;;;;;5095905;28;20534;-87
2023/04/10 08:08:17;;;;;;;9.27;7.00;;;21.30;62.40;;;;;;5095678;28;20448;-87
2023/04/10 08:10:44;;;;;;;9.00;7.20;;;21.30;62.50;;;;;;5095447;28;20448;-87
2023/04/10 08:13:11;;;;;;;8.77;5.67;;;21.30;62.50;;;;;;5095636;28;20440;-87
2023/04/10 08:15:38;;;;;;;9.17;6.73;;;21.30;62.60;;;;;;5095607;28;20515;-82
2023/04/10 08:18:06;;;;;;;10.03;6.90;;;21.40;62.80;;;;;;5095099;28;20485;-83
2023/04/10 08:20:35;;;;;;;8.07;6.20;;;21.40;62.90;;;;;;5096220;28;20440;-87
2023/04/10 08:23:03;;;;;;;9.20;6.20;;;21.40;62.80;;;;;;5096175;28;20476;-88
2023/04/10 08:25:30;;;;;;;13.90;6.80;;;21.40;62.90;;;;;;5096128;28;20938;-88
2023/04/10 08:27:59;;;;;;;9.23;6.63;;;21.40;62.90;;;;;;5095926;28;20443;-87
2023/04/10 08:30:26;;;;;;;8.43;6.13;;;21.60;63.30;;;;;;5096090;28;20444;-84
2023/04/10 08:32:52;;;;;;;12.20;7.40;;;21.50;63.20;;;;;;5095924;28;20464;-87
2023/04/10 08:35:21;;;;;;;6.90;6.20;;;21.60;63.30;;;;;;5095980;28;20444;-82
2023/04/10 08:37:47;;;;;;;6.10;5.47;;;21.50;63.20;;;;;;5096050;28;20484;-82
2023/04/10 08:40:14;;;;;;;6.03;5.40;;;21.60;63.40;;;;;;5095928;28;20443;-82
2023/04/10 08:42:41;;;;;;;9.50;5.53;;;21.60;63.40;;;;;;5095828;28;21029;-83
2023/04/10 08:45:09;;;;;;;7.13;5.97;;;21.60;63.40;;;;;;5095862;28;20446;-86
2023/04/10 08:47:37;;;;;;;6.30;5.70;;;21.60;63.50;;;;;;5095731;28;20440;-86
2023/04/10 08:50:07;;;;;;;7.13;5.70;;;21.70;63.60;;;;;;5095520;28;20863;-86
2023/04/10 08:52:40;;;;;;;5.93;5.10;;;21.70;63.50;;;;;;5095938;28;20440;-87
2023/04/10 08:55:09;;;;;;;8.20;6.00;;;21.70;63.50;;;;;;5095782;28;20522;-86
2023/04/10 08:57:38;;;;;;;6.13;5.53;;;21.80;63.70;;;;;;5095429;28;20483;-82
2023/04/10 09:00:06;;;;;;;6.07;5.23;;;21.80;63.70;;;;;;5095350;28;20937;-82
2023/04/10 09:02:33;;;;;;;6.03;4.80;;;21.80;63.60;;;;;;5095466;28;20440;-86
2023/04/10 09:05:02;;;;;;;5.43;4.90;;;21.90;63.70;;;;;;5095392;28;20435;-86
2023/04/10 09:07:29;;;;;;;5.80;5.03;;;21.90;63.60;;;;;;5095389;28;20436;-87
2023/04/10 09:09:57;;;;;;;5.63;5.03;;;21.90;63.60;;;;;;5095212;28;20436;-85
2023/04/10 09:12:24;;;;;;;5.40;4.90;;;22.00;63.70;;;;;;5095455;28;20526;-83
2023/04/10 09:14:52;;;;;;;5.67;4.60;;;22.00;63.70;;;;;;5095236;28;20447;-86
2023/04/10 09:17:20;;;;;;;5.17;4.67;;;22.00;63.70;;;;;;5094993;28;20518;-87
2023/04/10 09:19:48;;;;;;;5.00;4.50;;;22.00;63.70;;;;;;5095203;28;20432;-82
2023/04/10 09:22:16;;;;;;;8.23;5.03;;;22.10;63.70;;;;;;5095255;28;20444;-83
2023/04/10 09:24:44;;;;;;;5.70;4.90;;;22.10;63.70;;;;;;5095001;28;20440;-87
2023/04/10 09:27:28;;;;;;;5.50;4.80;;;22.20;63.70;;;;;;5094984;28;20457;-82
2023/04/10 09:29:55;;;;;;;5.70;4.80;;;22.20;63.80;;;;;;5094523;28;20451;-82
2023/04/10 09:32:37;;;;;;;5.27;4.27;;;22.20;63.80;;;;;;5094550;28;20440;-83
2023/04/10 09:35:04;;;;;;;5.37;4.07;;;22.20;64.70;;;;;;5094810;28;20920;-82
2023/04/10 09:37:32;;;;;;;5.83;4.77;;;22.20;63.70;;;;;;5094703;28;20490;-83
2023/04/10 09:39:59;;;;;;;7.13;5.00;;;22.20;63.80;;;;;;5094749;28;20441;-86
2023/04/10 09:42:31;;;;;;;4.87;4.37;;;22.30;63.80;;;;;;5094771;28;20448;-86
2023/04/10 09:44:58;;;;;;;5.70;4.10;;;22.30;63.80;;;;;;5094774;28;20444;-86
2023/04/10 09:47:25;;;;;;;4.97;4.43;;;22.30;63.80;;;;;;5094500;28;20440;-83
2023/04/10 09:49:53;;;;;;;5.90;4.90;;;22.30;63.80;;;;;;5076153;28;20477;-85
2023/04/10 09:52:22;;;;;;;4.73;4.23;;;22.20;63.60;;;;;;5094375;28;20428;-87
2023/04/10 09:54:49;;;;;;;4.23;3.93;;;22.20;63.60;;;;;;5094413;28;20530;-86
2023/04/10 09:57:18;;;;;;;4.33;3.93;;;22.30;63.70;;;;;;5094540;28;20474;-86
2023/04/10 09:59:50;;;;;;;4.00;3.60;;;22.30;63.80;;;;;;5094501;28;20488;-86
2023/04/10 10:02:18;;;;;;;3.90;3.50;;;22.30;63.80;;;;;;5094356;28;20489;-86
2023/04/10 10:04:46;;;;;;;4.70;4.30;;;22.30;63.80;;;;;;5094345;28;20467;-82
2023/04/10 10:07:15;;;;;;;6.80;4.40;;;22.40;63.90;;;;;;5094348;28;20448;-87
2023/04/10 10:09:43;;;;;;;8.53;4.57;;;22.30;64.60;;;;;;5094316;28;20436;-87
2023/04/10 10:12:11;;;;;;;3.77;3.30;;;22.30;63.80;;;;;;5094393;28;20439;-87
2023/04/10 10:14:45;;;;;;;4.03;3.70;;;22.40;63.80;;;;;;5094285;28;20493;-82
2023/04/10 10:17:18;;;;;;;3.87;3.57;;;22.50;64.00;;;;;;5094065;28;20478;-87
2023/04/10 10:19:51;;;;;;;4.20;3.80;;;22.40;63.80;;;;;;5093975;28;21003;-83
2023/04/10 10:22:19;;;;;;;5.93;4.30;;;22.40;63.90;;;;;;5094060;28;20444;-82
2023/04/10 10:24:47;;;;;;;4.90;3.77;;;22.50;64.00;;;;;;5094040;28;20952;-82
2023/04/10 10:27:16;;;;;;;4.90;3.97;;;22.50;63.90;;;;;;5093901;28;20501;-82
2023/04/10 10:29:46;;;;;;;4.00;3.60;;;22.40;63.80;;;;;;5093862;28;20442;-87
2023/04/10 10:32:15;;;;;;;4.17;3.77;;;22.50;63.90;;;;;;5093931;28;20946;-82
2023/04/10 10:34:42;;;;;;;4.07;3.50;;;22.50;63.90;;;;;;5093508;28;20464;-82
2023/04/10 10:37:09;;;;;;;4.43;3.83;;;22.40;63.90;;;;;;5093789;28;20471;-82
2023/04/10 10:39:46;;;;;;;4.07;3.67;;;22.50;63.90;;;;;;5093817;28;20440;-82
2023/04/10 10:42:32;;;;;;;4.27;3.87;;;22.40;63.80;;;;;;5093350;28;20436;-81
2023/04/10 10:45:09;;;;;;;4.03;3.57;;;22.50;63.90;;;;;;5093574;28;20447;-82
2023/04/10 10:47:41;;;;;;;3.20;2.90;;;22.40;63.90;;;;;;5093869;28;20990;-82
2023/04/10 10:50:08;;;;;;;3.60;3.30;;;22.50;64.00;;;;;;5093269;28;20468;-82
2023/04/10 10:52:42;;;;;;;3.57;3.27;;;22.50;64.00;;;;;;5093654;28;20839;-82
2023/04/10 10:55:35;;;;;;;3.10;2.90;;;22.50;64.00;;;;;;5093417;28;20461;-82
2023/04/10 10:58:05;;;;;;;3.70;3.40;;;22.60;64.00;;;;;;5091003;28;20488;-81
2023/04/10 11:01:07;;;;;;;4.43;4.03;;;22.60;63.90;;;;;;5093632;28;20432;-82
2023/04/10 11:03:36;;;;;;;5.43;3.50;;;22.60;64.00;;;;;;5093402;28;20467;-82
2023/04/10 11:06:05;;;;;;;3.07;2.87;;;22.50;64.70;;;;;;5093469;28;20443;-82
2023/04/10 11:08:41;;;;;;;2.93;2.63;;;22.60;64.00;;;;;;5093203;28;20440;-82
2023/04/10 11:11:09;;;;;;;3.63;3.33;;;22.60;64.10;;;;;;5093625;28;20440;-81
2023/04/10 11:13:37;;;;;;;4.43;3.60;;;22.60;64.10;;;;;;5075423;28;20534;-82
2023/04/10 11:16:05;;;;;;;3.67;3.37;;;22.60;64.20;;;;;;5093424;28;20454;-81
2023/04/10 11:19:13;;;;;;;3.20;3.00;;;22.60;64.20;;;;;;5093294;28;20914;-81
2023/04/10 11:22:04;;;;;;;3.30;3.00;;;22.60;64.10;;;;;;5093463;28;20432;-82
2023/04/10 11:24:57;;;;;;;2.80;2.60;;;22.70;64.20;;;;;;5093198;28;20786;-82
2023/04/10 11:27:41;;;;;;;3.00;2.70;;;22.60;64.20;;;;;;5093250;28;20439;-82
2023/04/10 11:30:35;;;;;;;3.10;2.80;;;22.70;64.20;;;;;;5093258;28;20484;-87
2023/04/10 11:33:03;;;;;;;3.27;3.03;;;22.70;64.30;;;;;;5093202;28;20801;-81
2023/04/10 11:35:32;;;;;;;2.70;2.50;;;22.60;64.30;;;;;;5093105;28;20451;-82
2023/04/10 11:38:18;;;;;;;2.50;2.40;;;22.70;64.40;;;;;;5092962;28;20957;-86
2023/04/10 11:41:04;;;;;;;2.97;2.60;;;22.70;64.40;;;;;;5075287;28;20449;-82
2023/04/10 11:43:32;;;;;;;3.63;3.20;;;22.70;64.30;;;;;;5093202;28;20498;-82
2023/04/10 11:46:04;;;;;;;3.80;3.50;;;22.70;64.40;;;;;;5093103;28;20435;-81
2023/04/10 11:48:31;;;;;;;3.30;2.97;;;22.70;64.40;;;;;;5093082;28;20440;-82
2023/04/10 11:51:00;;;;;;;2.87;2.40;;;22.70;64.30;;;;;;5092578;28;20497;-82
2023/04/10 11:53:28;;;;;;;3.40;3.10;;;22.70;64.30;;;;;;5093457;28;20866;-82
2023/04/10 11:55:56;;;;;;;4.73;3.10;;;22.70;64.20;;;;;;5096769;28;20443;-82
2023/04/10 11:58:25;;;;;;;3.10;2.90;;;22.70;64.20;;;;;;5096511;28;20475;-86
2023/04/10 12:00:59;;;;;;;3.20;2.90;;;22.70;64.30;;;;;;5096686;28;20444;-82
2023/04/10 12:03:32;;;;;;;3.20;2.60;;;22.70;64.30;;;;;;5096546;28;20474;-82
2023/04/10 12:06:00;;;;;;;3.07;2.83;;;22.70;64.40;;;;;;5096881;28;20957;-82
2023/04/10 12:08:31;;;;;;;2.50;2.27;;;22.70;64.40;;;;;;5096059;28;20443;-82
2023/04/10 12:10:59;;;;;;;3.80;2.20;;;22.70;64.50;;;;;;5078663;28;20447;-82
2023/04/10 12:13:26;;;;;;;2.80;2.60;;;22.70;64.40;;;;;;5096628;28;20437;-81
2023/04/10 12:15:53;;;;;;;3.43;3.23;;;22.70;64.40;;;;;;5096560;28;20451;-82
2023/04/10 12:18:20;;;;;;;2.87;2.67;;;22.70;64.40;;;;;;5096170;28;20487;-82
2023/04/10 12:20:50;;;;;;;2.57;2.37;;;22.70;64.40;;;;;;5096318;28;20435;-82
2023/04/10 12:23:18;;;;;;;3.37;2.60;;;22.70;64.50;;;;;;5096400;28;20448;-81
2023/04/10 12:25:45;;;;;;;2.60;2.40;;;22.70;64.40;;;;;;5096125;28;20958;-82
2023/04/10 12:28:18;;;;;;;2.23;2.10;;;22.70;64.40;;;;;;5096158;28;20443;-82
2023/04/10 12:30:51;;;;;;;2.63;2.43;;;22.70;64.50;;;;;;5096152;28;20841;-82
2023/04/10 12:33:22;;;;;;;2.50;2.30;;;22.70;65.30;;;;;;5096126;28;20475;-82
2023/04/10 12:35:49;;;;;;;3.10;2.60;;;22.80;64.60;;;;;;5095874;28;20442;-82
2023/04/10 12:38:16;;;;;;;2.77;2.57;;;22.70;64.40;;;;;;5095749;28;20570;-82
2023/04/10 12:40:59;;;;;;;2.93;2.70;;;22.70;64.40;;;;;;5096020;28;20476;-82
2023/04/10 12:43:33;;;;;;;3.33;2.73;;;22.80;64.50;;;;;;5095953;28;20443;-82
2023/04/10 12:46:01;;;;;;;2.50;2.30;;;22.90;64.60;;;;;;5095646;28;20446;-81
2023/04/10 12:48:28;;;;;;;2.40;2.20;;;22.70;64.50;;;;;;5095892;28;20871;-82
2023/04/10 12:50:55;;;;;;;2.70;2.50;;;22.70;64.40;;;;;;5095499;28;20468;-82
2023/04/10 12:53:22;;;;;;;2.73;2.53;;;22.70;64.40;;;;;;5095642;28;20432;-82
2023/04/10 12:56:06;;;;;;;2.40;2.20;;;22.70;64.40;;;;;;5095473;28;20435;-82